Time;durP1;ratioP1;P1;durP2;ratioP2;P2;SDS_P1;SDS_P2;PMS_P1;PMS_P2;Temp;Humidity;BMP_temperature;BMP_pressure;BME280_temperature;BME280_humidity;BME280_pressure;Samples;Min_cycle;Max_cycle;Signal;HPM_P1;HPM_P2
2022/12/08 00:01:26;;;;;;;6.73;4.13;;;12.40;99.90;;;;;;5044320;28;20661;-78
2022/12/08 00:03:53;;;;;;;6.03;4.07;;;12.40;99.90;;;;;;5041912;28;20219;-78
2022/12/08 00:09:40;;;;;;;6.10;4.27;;;12.40;99.90;;;;;;5029316;28;20188;-78
2022/12/08 00:12:16;;;;;;;6.47;4.07;;;12.40;99.90;;;;;;5011033;28;20648;-78
2022/12/08 00:14:46;;;;;;;7.83;4.43;;;12.40;99.90;;;;;;5038559;28;20194;-78
2022/12/08 00:17:15;;;;;;;8.33;4.73;;;12.40;99.90;;;;;;5047723;28;20180;-78
2022/12/08 00:19:43;;;;;;;6.30;4.70;;;12.40;99.90;;;;;;5021807;28;20834;-77
2022/12/08 00:22:11;;;;;;;7.53;4.93;;;12.40;99.90;;;;;;5032335;28;20553;-78
2022/12/08 00:24:40;;;;;;;7.40;4.80;;;12.40;99.90;;;;;;5027073;28;20188;-78
2022/12/08 00:27:08;;;;;;;7.30;4.23;;;12.50;99.90;;;;;;5029186;28;20192;-78
2022/12/08 00:29:35;;;;;;;6.30;4.50;;;12.40;99.90;;;;;;5028290;28;20219;-78
2022/12/08 00:32:03;;;;;;;5.57;4.50;;;12.40;99.90;;;;;;5033297;28;20771;-78
2022/12/08 00:34:31;;;;;;;5.90;5.30;;;12.50;99.90;;;;;;5027899;28;20334;-78
2022/12/08 00:36:57;;;;;;;5.80;4.50;;;12.50;99.90;;;;;;5029674;28;20707;-78
2022/12/08 00:39:24;;;;;;;5.60;4.37;;;12.50;99.90;;;;;;5026183;28;20302;-78
2022/12/08 00:44:36;;;;;;;5.33;3.97;;;12.50;99.90;;;;;;5026667;28;20227;-78
2022/12/08 00:47:03;;;;;;;7.67;4.60;;;12.50;99.90;;;;;;5041851;28;20188;-78
2022/12/08 00:49:30;;;;;;;6.70;4.80;;;12.50;99.90;;;;;;5026571;28;20199;-78
2022/12/08 00:51:57;;;;;;;5.20;4.37;;;12.50;99.90;;;;;;5030392;28;20614;-78
2022/12/08 00:54:23;;;;;;;6.67;4.63;;;12.40;99.90;;;;;;5013728;28;20199;-78
2022/12/08 00:56:50;;;;;;;9.40;4.30;;;12.40;99.90;;;;;;5018225;28;20208;-77
2022/12/08 00:59:16;;;;;;;8.43;5.03;;;12.40;99.90;;;;;;5023017;28;20212;-78
2022/12/08 01:01:46;;;;;;;5.57;4.30;;;12.40;99.90;;;;;;5006931;28;20523;-77
2022/12/08 01:04:16;;;;;;;8.93;4.53;;;12.30;99.90;;;;;;5043815;28;20709;-78
2022/12/08 01:06:44;;;;;;;6.23;4.53;;;12.30;99.90;;;;;;5018545;28;20180;-78
2022/12/08 01:09:12;;;;;;;5.80;4.13;;;12.30;99.90;;;;;;5015534;28;20192;-78
2022/12/08 01:11:39;;;;;;;6.43;4.50;;;12.20;99.90;;;;;;5037015;28;20196;-78
2022/12/08 01:14:05;;;;;;;9.70;4.13;;;12.20;99.90;;;;;;5044070;28;20196;-78
2022/12/08 01:16:34;;;;;;;6.70;4.13;;;12.20;99.90;;;;;;5028065;28;20188;-77
2022/12/08 01:19:01;;;;;;;6.57;4.50;;;12.00;99.90;;;;;;5028758;28;20291;-77
2022/12/08 01:21:29;;;;;;;6.07;4.63;;;12.00;99.90;;;;;;5012133;28;20184;-77
2022/12/08 01:23:57;;;;;;;5.57;3.70;;;12.00;99.90;;;;;;5033764;28;20180;-78
2022/12/08 01:26:24;;;;;;;6.77;4.17;;;12.00;99.90;;;;;;5008268;28;20275;-78
2022/12/08 01:28:51;;;;;;;5.50;4.03;;;12.10;99.90;;;;;;5031452;28;20180;-78
2022/12/08 01:31:21;;;;;;;6.00;4.30;;;12.10;99.90;;;;;;5015939;28;20175;-78
2022/12/08 01:33:48;;;;;;;4.90;4.07;;;12.00;99.90;;;;;;5023370;28;20188;-78
2022/12/08 01:36:28;;;;;;;7.57;4.30;;;12.00;99.90;;;;;;5031369;28;20217;-78
2022/12/08 01:38:59;;;;;;;6.33;4.20;;;12.00;99.90;;;;;;5032566;28;20258;-78
2022/12/08 01:41:32;;;;;;;7.67;4.50;;;12.00;99.90;;;;;;5009874;28;20188;-78
2022/12/08 01:44:23;;;;;;;7.33;4.87;;;12.00;99.90;;;;;;5035021;28;20184;-78
2022/12/08 01:46:52;;;;;;;7.63;4.70;;;11.90;99.90;;;;;;5031429;28;20184;-78
2022/12/08 01:49:30;;;;;;;7.80;4.80;;;11.90;99.90;;;;;;5044144;28;20192;-78
2022/12/08 01:52:04;;;;;;;6.73;4.90;;;11.90;99.90;;;;;;5033311;28;20609;-78
2022/12/08 01:54:38;;;;;;;5.03;4.03;;;11.90;99.90;;;;;;5013917;28;20188;-78
2022/12/08 02:11:50;;;;;;;7.60;4.13;;;12.00;99.90;;;;;;5026809;28;20188;-78
2022/12/08 02:14:16;;;;;;;7.43;4.90;;;12.00;99.90;;;;;;5014276;28;20189;-78
2022/12/08 02:17:10;;;;;;;9.67;4.20;;;11.90;99.90;;;;;;5028667;28;20227;-77
2022/12/08 02:20:22;;;;;;;7.73;4.90;;;11.90;99.90;;;;;;5024272;28;20223;-78
2022/12/08 02:23:31;;;;;;;7.53;5.20;;;11.90;99.90;;;;;;5028150;28;20188;-77
2022/12/08 02:26:12;;;;;;;6.43;4.50;;;11.90;99.90;;;;;;5035396;28;20189;-78
2022/12/08 02:29:41;;;;;;;6.27;4.50;;;11.90;99.90;;;;;;5028451;28;20267;-78
2022/12/08 02:32:32;;;;;;;6.73;5.00;;;11.90;99.90;;;;;;4988459;28;20227;-78
2022/12/08 02:35:32;;;;;;;8.73;4.93;;;11.90;99.90;;;;;;5026545;28;20271;-78
2022/12/08 02:38:13;;;;;;;8.80;4.87;;;11.90;99.90;;;;;;5026628;28;20185;-78
2022/12/08 02:40:54;;;;;;;7.20;4.80;;;11.90;99.90;;;;;;5038423;28;20200;-76
2022/12/08 02:44:01;;;;;;;6.57;4.43;;;11.90;99.90;;;;;;5011842;28;20274;-77
2022/12/08 02:46:37;;;;;;;10.47;4.97;;;12.00;99.90;;;;;;5002265;28;20187;-77
2022/12/08 02:49:05;;;;;;;7.43;4.90;;;12.00;99.90;;;;;;5025588;28;20274;-78
2022/12/08 02:51:32;;;;;;;7.43;5.30;;;12.00;99.90;;;;;;5024575;28;20204;-78
2022/12/08 02:54:00;;;;;;;7.70;5.20;;;11.90;99.90;;;;;;5027076;28;20278;-78
2022/12/08 02:57:00;;;;;;;7.07;4.87;;;11.90;99.90;;;;;;5039279;28;20198;-78
2022/12/08 03:00:07;;;;;;;6.63;4.37;;;11.90;99.90;;;;;;5008130;28;20224;-76
2022/12/08 03:02:52;;;;;;;5.73;4.93;;;11.90;99.90;;;;;;5031786;28;20203;-76
2022/12/08 03:05:42;;;;;;;8.77;5.07;;;11.80;99.90;;;;;;5026339;28;20185;-76
2022/12/08 03:08:15;;;;;;;8.13;5.43;;;11.80;99.90;;;;;;5046868;28;20275;-76
2022/12/08 03:11:00;;;;;;;7.80;5.03;;;11.80;99.90;;;;;;5014636;28;20267;-76
2022/12/08 03:13:57;;;;;;;5.57;4.60;;;11.80;99.90;;;;;;5035229;28;20314;-76
2022/12/08 03:16:31;;;;;;;7.40;5.13;;;11.80;99.90;;;;;;5051520;28;20194;-76
2022/12/08 03:19:29;;;;;;;6.77;5.27;;;11.80;99.90;;;;;;5030716;28;21914;-76
2022/12/08 03:22:03;;;;;;;7.40;5.07;;;11.80;99.90;;;;;;5010777;28;20810;-75
2022/12/08 03:24:39;;;;;;;8.07;4.77;;;11.80;99.90;;;;;;5029589;28;20195;-76
2022/12/08 03:27:19;;;;;;;5.13;4.50;;;11.70;99.90;;;;;;5032249;28;20252;-76
2022/12/08 03:29:51;;;;;;;7.57;5.40;;;11.70;99.90;;;;;;5032464;28;20188;-75
2022/12/08 03:32:51;;;;;;;6.93;5.40;;;11.70;99.90;;;;;;5019637;28;20208;-75
2022/12/08 03:35:26;;;;;;;9.40;5.07;;;11.80;99.90;;;;;;5049503;28;20184;-76
2022/12/08 03:38:04;;;;;;;7.13;5.20;;;11.80;99.90;;;;;;5015725;28;20746;-76
2022/12/08 03:40:32;;;;;;;9.03;4.67;;;11.80;99.90;;;;;;5033417;28;20204;-76
2022/12/08 03:42:59;;;;;;;7.33;5.20;;;11.80;99.90;;;;;;5055356;28;20516;-76
2022/12/08 03:45:27;;;;;;;7.13;5.23;;;11.80;99.90;;;;;;5036488;28;20185;-76
2022/12/08 03:47:53;;;;;;;7.80;5.10;;;11.80;99.90;;;;;;5049241;28;20172;-76
2022/12/08 03:50:19;;;;;;;8.90;5.87;;;11.80;99.90;;;;;;5035587;28;20176;-75
2022/12/08 03:52:47;;;;;;;6.27;4.97;;;11.80;99.90;;;;;;5016970;28;20227;-76
2022/12/08 03:55:13;;;;;;;9.73;5.10;;;11.80;99.90;;;;;;5030452;28;20188;-75
2022/12/08 03:57:40;;;;;;;7.10;4.93;;;11.80;99.90;;;;;;5016923;28;20188;-76
2022/12/08 04:00:13;;;;;;;6.90;5.47;;;11.80;99.90;;;;;;5029888;28;20208;-76
2022/12/08 04:02:39;;;;;;;9.43;4.87;;;11.80;99.90;;;;;;5047435;28;20668;-75
2022/12/08 04:05:06;;;;;;;7.23;5.03;;;11.80;99.90;;;;;;5035865;28;20188;-75
2022/12/08 04:07:32;;;;;;;6.60;4.73;;;11.80;99.90;;;;;;5035812;28;20207;-75
2022/12/08 04:10:01;;;;;;;9.30;5.37;;;11.80;99.90;;;;;;5020641;28;20211;-76
2022/12/08 04:12:27;;;;;;;6.63;5.10;;;11.80;99.90;;;;;;5036511;28;20204;-76
2022/12/08 04:14:53;;;;;;;6.53;5.53;;;11.80;99.90;;;;;;5048420;28;20576;-76
2022/12/08 04:17:19;;;;;;;9.03;5.63;;;11.80;99.90;;;;;;5021249;28;20185;-75
2022/12/08 04:19:45;;;;;;;5.77;5.03;;;11.80;99.90;;;;;;5018598;28;20208;-76
2022/12/08 04:22:11;;;;;;;7.73;5.20;;;11.80;99.90;;;;;;5022478;28;20708;-75
2022/12/08 04:24:38;;;;;;;6.57;5.03;;;11.80;99.90;;;;;;5035789;28;20184;-75
2022/12/08 04:27:04;;;;;;;6.70;5.13;;;11.80;99.90;;;;;;5019068;28;20195;-76
2022/12/08 04:29:30;;;;;;;7.40;4.93;;;11.70;99.90;;;;;;5034627;28;20227;-75
2022/12/08 04:31:57;;;;;;;7.80;5.20;;;11.70;99.90;;;;;;5035248;28;20195;-75
2022/12/08 04:34:23;;;;;;;6.00;4.63;;;11.70;99.90;;;;;;5039327;28;20242;-76
2022/12/08 04:36:49;;;;;;;8.63;5.43;;;11.70;99.90;;;;;;5050320;28;20196;-76
2022/12/08 04:39:16;;;;;;;8.13;5.10;;;11.70;99.90;;;;;;5018177;28;20259;-76
2022/12/08 04:41:42;;;;;;;7.43;5.43;;;11.80;99.90;;;;;;5039739;28;20189;-75
2022/12/08 04:44:09;;;;;;;16.23;10.40;;;11.70;99.90;;;;;;5018360;28;20176;-76
2022/12/08 04:46:35;;;;;;;18.90;10.27;;;11.70;99.90;;;;;;5052215;28;20176;-75
2022/12/08 04:49:01;;;;;;;10.93;7.50;;;11.70;99.90;;;;;;5040019;28;20188;-76
2022/12/08 04:51:28;;;;;;;12.83;8.10;;;11.70;99.90;;;;;;5017987;28;20267;-75
2022/12/08 04:53:54;;;;;;;15.03;9.77;;;11.70;99.90;;;;;;5036721;28;20597;-76
2022/12/08 04:56:20;;;;;;;14.60;9.97;;;11.70;99.90;;;;;;5037158;28;20665;-76
2022/12/08 04:58:48;;;;;;;15.13;9.73;;;11.70;99.90;;;;;;5041225;28;20246;-76
2022/12/08 05:01:15;;;;;;;10.03;6.97;;;11.70;99.90;;;;;;5017535;28;20202;-76
2022/12/08 05:03:41;;;;;;;13.90;7.93;;;11.70;99.90;;;;;;5029213;28;20242;-76
2022/12/08 05:06:12;;;;;;;12.33;7.33;;;11.70;99.90;;;;;;5040168;28;20275;-76
2022/12/08 05:08:40;;;;;;;9.93;6.50;;;11.60;99.90;;;;;;5009098;28;20200;-75
2022/12/08 05:11:10;;;;;;;10.57;5.60;;;11.60;99.90;;;;;;5041808;28;20195;-76
2022/12/08 05:13:38;;;;;;;11.17;7.63;;;11.60;99.90;;;;;;5013030;28;20204;-76
2022/12/08 05:16:10;;;;;;;9.83;6.83;;;11.60;99.90;;;;;;5033558;28;20188;-76
2022/12/08 05:18:39;;;;;;;13.00;6.37;;;11.60;99.90;;;;;;5035763;28;20195;-76
2022/12/08 05:21:06;;;;;;;9.23;5.73;;;11.60;99.90;;;;;;5035680;28;20204;-75
2022/12/08 05:23:33;;;;;;;6.43;4.93;;;11.60;99.90;;;;;;5035561;28;20192;-75
2022/12/08 05:26:01;;;;;;;6.70;4.47;;;11.60;99.90;;;;;;5034887;28;20262;-76
2022/12/08 05:28:28;;;;;;;7.03;4.53;;;11.60;99.90;;;;;;5023799;28;20196;-75
2022/12/08 05:30:55;;;;;;;7.33;4.43;;;11.60;99.90;;;;;;5035480;28;20239;-75
2022/12/08 05:33:21;;;;;;;6.27;4.70;;;11.60;99.90;;;;;;5021146;28;20550;-76
2022/12/08 05:35:47;;;;;;;6.80;4.73;;;11.60;99.90;;;;;;5061708;28;20211;-76
2022/12/08 05:38:16;;;;;;;6.70;4.83;;;11.60;99.90;;;;;;5039126;28;20173;-76
2022/12/08 05:40:43;;;;;;;7.10;4.60;;;11.60;99.90;;;;;;5016154;28;20632;-75
2022/12/08 05:43:10;;;;;;;7.60;4.90;;;11.60;99.90;;;;;;5019171;28;20188;-76
2022/12/08 05:45:37;;;;;;;5.43;4.40;;;11.70;99.90;;;;;;5034929;28;20180;-76
2022/12/08 05:48:04;;;;;;;6.97;4.93;;;11.70;99.90;;;;;;5050463;28;20665;-75
2022/12/08 05:50:30;;;;;;;6.63;4.80;;;11.70;99.90;;;;;;5033420;28;20280;-76
2022/12/08 05:52:56;;;;;;;6.30;4.53;;;11.70;99.90;;;;;;5037621;28;20181;-75
2022/12/08 05:55:23;;;;;;;7.87;4.83;;;11.70;99.90;;;;;;5040660;28;20179;-76
2022/12/08 05:57:49;;;;;;;6.77;4.47;;;11.70;99.90;;;;;;5050133;28;20189;-76
2022/12/08 06:00:16;;;;;;;6.53;4.63;;;11.80;99.90;;;;;;5035358;28;20216;-76
2022/12/08 06:02:44;;;;;;;6.67;4.50;;;11.80;99.90;;;;;;5009694;28;20187;-75
2022/12/08 06:05:10;;;;;;;8.93;4.50;;;11.80;99.90;;;;;;5023811;28;20183;-76
2022/12/08 06:07:37;;;;;;;6.57;4.77;;;11.80;99.90;;;;;;5021190;28;20196;-76
2022/12/08 06:10:04;;;;;;;4.80;4.40;;;11.90;99.90;;;;;;5054539;28;20184;-76
2022/12/08 06:12:31;;;;;;;7.50;4.53;;;11.90;99.90;;;;;;5014995;28;20193;-76
2022/12/08 06:14:57;;;;;;;5.77;4.40;;;11.90;99.90;;;;;;5040715;28;20237;-76
2022/12/08 06:17:25;;;;;;;6.40;4.77;;;12.00;99.90;;;;;;5011325;28;20223;-76
2022/12/08 06:19:52;;;;;;;7.33;4.30;;;12.00;99.90;;;;;;5033690;28;20200;-76
2022/12/08 06:22:19;;;;;;;6.03;4.43;;;12.10;99.90;;;;;;5029205;28;20567;-76
2022/12/08 06:24:45;;;;;;;6.53;4.33;;;12.10;99.90;;;;;;5029124;28;20669;-76
2022/12/08 06:27:11;;;;;;;5.10;4.27;;;12.10;99.90;;;;;;5035001;28;20195;-76
2022/12/08 06:29:38;;;;;;;5.77;4.43;;;12.20;99.90;;;;;;5031653;28;20183;-76
2022/12/08 06:32:05;;;;;;;5.20;4.70;;;12.20;99.90;;;;;;5030780;28;20671;-76
2022/12/08 06:34:31;;;;;;;5.13;4.63;;;12.30;99.90;;;;;;5058844;28;20649;-75
2022/12/08 06:36:58;;;;;;;5.03;4.50;;;12.30;99.90;;;;;;5031576;28;20187;-76
2022/12/08 06:39:24;;;;;;;9.13;4.33;;;12.30;99.90;;;;;;5031637;28;20217;-76
2022/12/08 06:44:37;;;;;;;7.27;4.67;;;12.50;99.90;;;;;;5032981;28;20172;-76
2022/12/08 06:47:03;;;;;;;6.87;4.57;;;12.50;99.90;;;;;;5026413;28;20251;-76
2022/12/08 06:49:30;;;;;;;5.27;4.50;;;12.60;99.90;;;;;;5010129;28;20227;-75
2022/12/08 06:51:56;;;;;;;4.73;4.30;;;12.60;99.90;;;;;;5036937;28;20214;-76
2022/12/08 06:54:22;;;;;;;6.20;4.77;;;12.70;99.90;;;;;;5017458;28;20180;-76
2022/12/08 06:56:48;;;;;;;6.57;4.70;;;12.70;99.90;;;;;;5032662;28;20649;-76
2022/12/08 06:59:16;;;;;;;6.43;4.40;;;12.80;99.90;;;;;;5032141;28;20207;-76
2022/12/08 07:01:42;;;;;;;6.47;4.73;;;12.90;99.90;;;;;;5030798;28;20271;-76
2022/12/08 07:04:09;;;;;;;5.23;4.33;;;12.90;99.90;;;;;;5034830;28;20194;-76
2022/12/08 07:06:35;;;;;;;7.10;4.60;;;12.90;99.90;;;;;;5034719;28;20176;-76
2022/12/08 07:09:02;;;;;;;5.03;4.10;;;13.00;99.90;;;;;;5017447;28;20187;-75
2022/12/08 07:11:28;;;;;;;5.50;4.40;;;13.00;99.90;;;;;;5046271;28;20267;-76
2022/12/08 07:13:56;;;;;;;4.87;3.93;;;13.00;99.90;;;;;;5006150;28;20267;-76
2022/12/08 07:16:23;;;;;;;4.83;4.33;;;13.00;99.90;;;;;;5018800;28;20208;-76
2022/12/08 07:18:49;;;;;;;6.30;4.00;;;13.10;99.90;;;;;;5028720;28;20189;-76
2022/12/08 07:21:17;;;;;;;4.90;4.10;;;13.10;99.90;;;;;;5034685;28;20184;-76
2022/12/08 07:23:49;;;;;;;7.10;4.10;;;13.10;99.90;;;;;;5016778;28;20546;-76
2022/12/08 07:26:15;;;;;;;6.40;4.00;;;13.20;99.90;;;;;;5023048;28;20673;-76
2022/12/08 07:28:44;;;;;;;5.70;4.50;;;13.50;99.90;;;;;;5028157;28;20187;-76
2022/12/08 07:31:24;;;;;;;6.93;3.90;;;14.10;99.90;;;;;;5028818;28;20197;-76
2022/12/08 07:33:52;;;;;;;6.00;3.63;;;14.00;99.90;;;;;;5014995;28;20183;-76
2022/12/08 07:36:19;;;;;;;6.93;4.00;;;13.80;99.90;;;;;;5049087;28;20199;-76
2022/12/08 07:38:45;;;;;;;9.33;4.40;;;13.70;99.90;;;;;;5039758;28;20230;-76
2022/12/08 07:41:18;;;;;;;5.53;4.13;;;13.60;99.90;;;;;;5017774;28;20215;-76
2022/12/08 07:43:45;;;;;;;7.10;4.63;;;13.60;99.90;;;;;;5016890;28;20223;-76
2022/12/08 07:46:14;;;;;;;6.47;3.93;;;13.60;99.90;;;;;;5041019;28;20189;-76
2022/12/08 07:48:42;;;;;;;4.40;3.80;;;13.60;99.90;;;;;;5029385;28;20257;-76
2022/12/08 07:51:12;;;;;;;6.77;4.30;;;13.60;99.90;;;;;;5037583;28;20248;-76
2022/12/08 07:53:41;;;;;;;5.87;3.90;;;13.50;99.90;;;;;;5010886;28;20199;-76
2022/12/08 07:56:10;;;;;;;5.27;4.00;;;13.60;99.90;;;;;;5050512;28;20218;-76
2022/12/08 07:58:37;;;;;;;6.37;3.97;;;13.60;99.90;;;;;;5028606;28;20191;-77
2022/12/08 08:01:03;;;;;;;4.90;4.00;;;13.60;99.90;;;;;;5036019;28;20215;-76
2022/12/08 08:03:30;;;;;;;5.77;3.80;;;13.60;99.90;;;;;;5016499;28;20200;-76
2022/12/08 08:06:06;;;;;;;6.50;4.40;;;13.60;99.90;;;;;;5029316;28;20199;-76
2022/12/08 08:08:32;;;;;;;6.47;3.93;;;13.70;99.90;;;;;;5036636;28;20203;-77
2022/12/08 08:10:59;;;;;;;5.73;3.50;;;13.80;99.90;;;;;;5040321;28;20199;-76
2022/12/08 08:13:25;;;;;;;3.90;3.50;;;13.90;99.90;;;;;;5039748;28;20678;-76
2022/12/08 08:15:51;;;;;;;5.93;3.63;;;13.90;99.90;;;;;;5031686;28;20193;-76
2022/12/08 08:18:18;;;;;;;4.93;3.43;;;14.00;99.90;;;;;;5031828;28;20184;-76
2022/12/08 08:20:44;;;;;;;4.57;3.23;;;14.00;99.90;;;;;;5031144;28;20215;-76
2022/12/08 08:23:10;;;;;;;3.57;3.27;;;13.90;99.90;;;;;;5039434;28;20210;-76
2022/12/08 08:25:36;;;;;;;4.73;3.57;;;13.90;99.90;;;;;;5035493;28;20184;-76
2022/12/08 08:28:04;;;;;;;3.97;2.77;;;13.90;99.90;;;;;;5027250;28;20184;-76
2022/12/08 08:30:30;;;;;;;3.20;2.90;;;14.10;99.90;;;;;;5012637;28;20200;-76
2022/12/08 08:32:56;;;;;;;4.03;2.90;;;14.20;99.90;;;;;;5025532;28;20560;-76
2022/12/08 08:35:22;;;;;;;3.77;3.03;;;14.20;99.90;;;;;;5044984;28;20272;-76
2022/12/08 08:37:49;;;;;;;3.77;3.33;;;14.20;99.90;;;;;;5025302;28;20180;-76
2022/12/08 08:40:17;;;;;;;6.57;3.20;;;14.20;99.90;;;;;;5031447;28;20228;-76
2022/12/08 08:42:44;;;;;;;6.37;3.20;;;14.10;99.90;;;;;;5031608;28;20267;-76
2022/12/08 08:45:11;;;;;;;8.30;3.20;;;14.20;99.90;;;;;;5031564;28;20275;-76
2022/12/08 08:47:37;;;;;;;5.00;3.13;;;14.20;99.90;;;;;;5036165;28;20196;-76
2022/12/08 08:50:04;;;;;;;4.50;3.03;;;14.30;99.90;;;;;;5044869;28;20230;-76
2022/12/08 08:52:30;;;;;;;5.87;3.23;;;14.30;99.90;;;;;;5029206;28;20744;-76
2022/12/08 08:54:56;;;;;;;6.20;3.50;;;14.30;99.90;;;;;;5017200;28;20192;-76
2022/12/08 08:57:23;;;;;;;5.87;2.90;;;14.40;99.90;;;;;;5016715;28;20191;-76
2022/12/08 08:59:49;;;;;;;5.00;3.60;;;14.30;99.90;;;;;;5016998;28;20712;-76
2022/12/08 09:02:18;;;;;;;4.37;3.30;;;14.40;99.90;;;;;;5032107;28;20646;-76
2022/12/08 09:04:45;;;;;;;4.27;3.30;;;14.40;99.90;;;;;;5028044;28;20224;-77
2022/12/08 09:07:12;;;;;;;6.30;3.07;;;14.40;99.90;;;;;;4998366;28;20280;-76
2022/12/08 09:09:39;;;;;;;3.45;3.08;;;14.50;99.90;;;;;;5029849;28;20472;-76
2022/12/08 09:12:06;;;;;;;6.27;3.20;;;14.50;99.90;;;;;;5022046;28;20185;-76
2022/12/08 09:14:33;;;;;;;3.80;3.27;;;14.60;99.90;;;;;;5010033;28;20192;-76
2022/12/08 09:16:59;;;;;;;5.03;3.27;;;14.60;99.90;;;;;;5024866;28;20291;-76
2022/12/08 09:19:25;;;;;;;5.07;3.13;;;14.60;99.90;;;;;;5008746;28;20223;-76
2022/12/08 09:21:51;;;;;;;3.37;2.47;;;14.70;99.90;;;;;;5022702;28;20654;-76
2022/12/08 09:24:18;;;;;;;4.17;3.30;;;14.70;99.90;;;;;;5012475;28;20193;-77
2022/12/08 09:26:45;;;;;;;3.83;3.17;;;14.80;99.90;;;;;;5014367;28;20812;-76
2022/12/08 09:29:13;;;;;;;5.77;3.07;;;14.90;99.90;;;;;;5037159;28;20561;-76
2022/12/08 09:31:41;;;;;;;4.33;3.10;;;14.90;99.90;;;;;;5023222;28;20244;-76
2022/12/08 09:34:10;;;;;;;3.13;2.77;;;15.00;99.90;;;;;;5017873;28;20212;-76
2022/12/08 09:36:36;;;;;;;4.27;3.20;;;15.10;99.90;;;;;;5033222;28;20204;-76
2022/12/08 09:39:03;;;;;;;3.30;3.00;;;15.20;99.90;;;;;;5006832;28;20185;-76
2022/12/08 09:41:59;;;;;;;6.40;2.83;;;15.20;99.90;;;;;;5018169;28;20694;-76
2022/12/08 09:44:56;;;;;;;7.30;2.60;;;15.20;99.90;;;;;;5018601;28;20315;-76
2022/12/08 09:48:10;;;;;;;4.33;2.47;;;15.40;99.90;;;;;;5026982;28;20196;-77
2022/12/08 09:50:55;;;;;;;4.03;3.10;;;15.50;99.90;;;;;;5013662;28;20362;-76
2022/12/08 09:53:49;;;;;;;5.20;3.43;;;15.50;99.90;;;;;;5046888;28;20188;-76
2022/12/08 09:56:24;;;;;;;5.47;3.27;;;15.50;99.90;;;;;;5018938;28;20192;-76
2022/12/08 09:59:28;;;;;;;8.23;3.73;;;15.40;99.90;;;;;;5014281;28;20280;-76
2022/12/08 10:01:54;;;;;;;7.73;3.50;;;15.40;99.90;;;;;;5049519;28;20184;-77
2022/12/08 10:04:40;;;;;;;7.47;3.77;;;15.40;99.90;;;;;;5034308;28;20574;-76
2022/12/08 10:07:16;;;;;;;6.23;3.40;;;15.50;99.90;;;;;;5056122;28;20181;-76
2022/12/08 10:10:22;;;;;;;3.60;3.30;;;15.50;99.90;;;;;;5020547;28;20605;-76
2022/12/08 10:13:03;;;;;;;4.77;3.40;;;15.60;99.90;;;;;;4985453;28;20192;-76
2022/12/08 10:16:13;;;;;;;5.23;3.63;;;15.70;99.90;;;;;;5026040;28;20192;-76
2022/12/08 10:18:40;;;;;;;5.10;3.70;;;15.70;99.90;;;;;;5006699;28;20246;-77
2022/12/08 10:21:18;;;;;;;5.43;3.60;;;15.80;99.90;;;;;;5021703;28;20239;-77
2022/12/08 10:23:51;;;;;;;6.37;3.67;;;15.80;99.90;;;;;;4995214;28;20635;-77
2022/12/08 10:26:21;;;;;;;6.60;3.90;;;15.80;99.90;;;;;;5024607;28;20207;-77
2022/12/08 10:28:48;;;;;;;6.37;3.63;;;15.80;99.90;;;;;;5039715;28;20562;-76
2022/12/08 10:31:24;;;;;;;4.57;3.90;;;15.80;99.90;;;;;;5041666;28;20188;-77
2022/12/08 10:34:09;;;;;;;5.97;3.63;;;15.70;99.90;;;;;;5024641;28;20189;-76
2022/12/08 10:36:57;;;;;;;6.73;3.50;;;15.60;99.90;;;;;;5007279;28;20190;-77
2022/12/08 10:39:44;;;;;;;4.27;3.47;;;15.60;99.90;;;;;;5041336;28;20205;-76
2022/12/08 10:42:20;;;;;;;5.13;3.67;;;15.60;99.90;;;;;;5040937;28;20222;-77
2022/12/08 10:45:07;;;;;;;7.03;3.73;;;15.60;99.90;;;;;;5007750;28;20188;-77
2022/12/08 10:47:40;;;;;;;5.23;3.60;;;15.70;99.90;;;;;;5012796;28;20200;-77
2022/12/08 10:50:31;;;;;;;8.07;4.13;;;15.70;99.90;;;;;;5008522;28;20265;-77
2022/12/08 10:53:08;;;;;;;6.03;4.13;;;15.70;99.90;;;;;;5057025;28;20596;-77
2022/12/08 10:55:47;;;;;;;6.90;3.97;;;15.90;99.90;;;;;;5025485;28;20191;-77
2022/12/08 10:58:34;;;;;;;4.57;3.80;;;15.90;99.90;;;;;;5053517;28;20195;-77
2022/12/08 11:01:13;;;;;;;5.20;3.80;;;15.90;99.90;;;;;;5024330;28;20204;-76
2022/12/08 11:03:57;;;;;;;5.37;3.77;;;15.80;99.90;;;;;;5020986;28;20534;-76
2022/12/08 11:06:27;;;;;;;7.30;3.80;;;15.80;99.90;;;;;;5025892;28;20585;-76
2022/12/08 11:08:58;;;;;;;8.30;3.80;;;15.70;99.90;;;;;;5018479;28;20192;-77
2022/12/08 11:11:48;;;;;;;6.60;3.80;;;15.70;99.90;;;;;;5035567;28;20669;-77
2022/12/08 11:14:43;;;;;;;9.93;3.93;;;15.60;99.90;;;;;;5020281;28;20279;-76
2022/12/08 11:17:42;;;;;;;5.63;3.80;;;15.60;99.90;;;;;;5012681;28;20216;-76
2022/12/08 11:20:09;;;;;;;6.23;3.57;;;15.60;99.90;;;;;;5022366;28;20216;-76
2022/12/08 11:22:42;;;;;;;6.17;4.27;;;15.60;99.90;;;;;;5018325;28;20207;-76
2022/12/08 11:25:14;;;;;;;6.00;3.73;;;15.60;99.90;;;;;;5010717;28;20291;-76
2022/12/08 11:27:51;;;;;;;5.93;4.37;;;15.60;99.90;;;;;;5020159;28;20676;-76
2022/12/08 11:30:27;;;;;;;7.10;4.03;;;15.60;99.90;;;;;;5013989;28;20181;-76
2022/12/08 11:33:13;;;;;;;7.63;4.23;;;15.50;99.90;;;;;;5007932;28;20247;-76
2022/12/08 11:35:48;;;;;;;6.93;4.17;;;15.50;99.90;;;;;;5002889;28;20200;-77
2022/12/08 11:38:22;;;;;;;4.37;3.90;;;15.50;99.90;;;;;;5019344;28;20188;-75
2022/12/08 11:41:09;;;;;;;7.33;4.07;;;15.50;99.90;;;;;;5014596;28;20718;-76
2022/12/08 11:43:44;;;;;;;4.53;4.00;;;15.50;99.90;;;;;;5040350;28;20196;-77
2022/12/08 11:46:47;;;;;;;8.10;4.40;;;15.50;99.90;;;;;;5023691;28;20176;-77
2022/12/08 11:49:14;;;;;;;5.33;4.17;;;15.50;99.90;;;;;;5027440;28;20204;-77
2022/12/08 11:52:01;;;;;;;5.40;3.90;;;15.40;99.90;;;;;;5021183;28;20254;-76
2022/12/08 11:54:44;;;;;;;4.90;4.20;;;15.50;99.90;;;;;;5057446;28;20276;-76
2022/12/08 11:57:19;;;;;;;8.40;4.50;;;15.50;99.90;;;;;;5029681;28;20528;-77
2022/12/08 11:59:51;;;;;;;8.03;4.10;;;15.40;99.90;;;;;;5035677;28;20598;-76
2022/12/08 12:02:30;;;;;;;7.00;4.20;;;15.40;99.90;;;;;;5027506;28;20275;-76
2022/12/08 12:05:59;;;;;;;8.03;4.90;;;15.40;99.90;;;;;;5007702;28;20184;-76
2022/12/08 12:08:48;;;;;;;6.40;4.73;;;15.40;99.90;;;;;;5004792;28;20196;-76
2022/12/08 12:15:21;;;;;;;6.93;4.27;;;15.40;99.90;;;;;;5025064;28;20181;-76
2022/12/08 12:18:02;;;;;;;6.23;4.60;;;15.30;99.90;;;;;;5008809;28;20187;-76
2022/12/08 12:20:52;;;;;;;6.87;4.40;;;15.30;99.90;;;;;;5050282;28;20216;-76
2022/12/08 12:24:06;;;;;;;5.80;4.77;;;15.30;99.90;;;;;;5019546;28;20253;-76
2022/12/08 12:26:47;;;;;;;5.50;4.80;;;15.20;99.90;;;;;;5041126;28;20235;-76
2022/12/08 12:29:22;;;;;;;8.03;4.73;;;15.20;99.90;;;;;;5036000;28;20509;-76
2022/12/08 12:31:58;;;;;;;7.33;5.00;;;15.20;99.90;;;;;;5030577;28;20203;-77
2022/12/08 12:34:57;;;;;;;8.53;5.00;;;15.20;99.90;;;;;;5035295;28;20184;-76
2022/12/08 12:37:41;;;;;;;8.33;4.97;;;15.10;99.90;;;;;;5027636;28;20208;-76
2022/12/08 12:40:38;;;;;;;7.07;5.40;;;15.10;99.90;;;;;;5041889;28;20228;-76
2022/12/08 12:43:04;;;;;;;7.33;4.40;;;15.10;99.90;;;;;;5018250;28;20176;-76
2022/12/08 12:45:34;;;;;;;8.00;4.80;;;15.10;99.90;;;;;;5033803;28;20184;-76
2022/12/08 12:48:01;;;;;;;6.17;4.33;;;15.10;99.90;;;;;;5035226;28;20207;-76
2022/12/08 12:51:25;;;;;;;6.47;5.03;;;15.10;99.90;;;;;;5018049;28;20259;-76
2022/12/08 12:53:52;;;;;;;7.60;5.50;;;15.10;99.90;;;;;;5035398;28;20233;-76
2022/12/08 12:57:03;;;;;;;6.97;5.00;;;15.10;99.90;;;;;;5043150;28;20211;-76
2022/12/08 12:59:52;;;;;;;8.33;5.37;;;15.10;99.90;;;;;;4994963;28;20302;-76
2022/12/08 13:02:30;;;;;;;9.07;5.10;;;15.10;99.90;;;;;;5048057;28;20185;-76
2022/12/08 13:04:58;;;;;;;6.57;5.13;;;15.10;99.90;;;;;;5032244;28;20183;-76
2022/12/08 13:07:33;;;;;;;8.43;5.63;;;15.10;99.90;;;;;;5020022;28;20270;-76
2022/12/08 13:10:21;;;;;;;8.93;5.57;;;15.00;99.90;;;;;;5011345;28;20219;-77
2022/12/08 13:13:15;;;;;;;7.43;5.87;;;15.00;99.90;;;;;;5025939;28;20184;-76
2022/12/08 13:15:55;;;;;;;6.37;5.37;;;15.00;99.90;;;;;;5053067;28;20237;-76
2022/12/08 13:18:49;;;;;;;8.50;5.77;;;15.00;99.90;;;;;;5033836;28;20226;-76
2022/12/08 13:21:21;;;;;;;9.40;5.60;;;15.00;99.90;;;;;;5033870;28;20222;-76
2022/12/08 13:24:18;;;;;;;7.00;5.73;;;15.00;99.90;;;;;;5038007;28;20188;-77
2022/12/08 13:27:12;;;;;;;6.70;6.00;;;15.00;99.90;;;;;;5012797;28;20202;-76
2022/12/08 13:29:39;;;;;;;9.27;6.73;;;15.00;99.90;;;;;;5044885;28;20223;-76
2022/12/08 13:32:09;;;;;;;14.07;7.03;;;15.00;99.90;;;;;;5037422;28;20184;-76
2022/12/08 13:34:58;;;;;;;8.50;6.93;;;15.00;99.90;;;;;;5036883;28;20192;-76
2022/12/08 13:37:38;;;;;;;7.67;6.60;;;15.00;99.90;;;;;;5017360;28;20191;-76
2022/12/08 13:40:21;;;;;;;9.27;6.43;;;15.00;99.90;;;;;;5032717;28;20204;-76
2022/12/08 13:43:04;;;;;;;8.27;5.43;;;15.00;99.90;;;;;;5032508;28;20176;-76
2022/12/08 13:45:34;;;;;;;7.93;4.80;;;15.00;99.90;;;;;;5035172;28;20230;-76
2022/12/08 13:48:39;;;;;;;9.57;5.10;;;14.90;99.90;;;;;;5040991;28;20669;-76